Terminal Aerodrome Forecast
Issued by NWS

Home | Current Version | Previous Version | Text Only | Print | Product List | Glossary On
Versions: 1 2 3 4 5 6 7 8 9 10 11 12 13
248
FTUS44 KTSA 261120
TAFMLC
TAF
KMLC 261120Z 2612/2712 32012KT 3SM TSRA BR OVC015CB
      TEMPO 2612/2615 1SM TSRA BR OVC008CB
     FM261500 34014G22KT P6SM VCSH BKN012
     FM262300 32011KT P6SM BKN025
     FM270200 26005KT P6SM SCT035=

USA.gov is the U.S. government's official web portal to all federal, state and local government web resources and services.